WTN15 EGNO-EGNO

Flight info

Callsign WTN15
Flight time 0h 31m
Altitude 1500
Route OPR
Aircraft EUFI/L-VGD/C

Departure

Time 2026-05-07 10:43
Airport Warton Aerodrome (EGNO)

Arrival

Time 2026-05-07 11:15
Airport Warton Aerodrome (EGNO)
Time Latitude Longitude Altitude Speed Heading
2026-05-07 10:28 53.74081 -2.87867 37 ft 0 kts 241°
2026-05-07 10:40 53.74078 -2.87875 37 ft 11 kts 244°
2026-05-07 10:40 53.74096 -2.88030 39 ft 13 kts 283°
2026-05-07 10:40 53.74116 -2.88180 41 ft 14 kts 288°
2026-05-07 10:41 53.74240 -2.88310 44 ft 26 kts 312°
2026-05-07 10:41 53.74344 -2.88334 50 ft 14 kts 60°
2026-05-07 10:41 53.74396 -2.88161 50 ft 20 kts 65°
2026-05-07 10:41 53.74469 -2.87930 52 ft 25 kts 59°
2026-05-07 10:42 53.74587 -2.87672 53 ft 28 kts 36°
2026-05-07 10:42 53.74700 -2.87376 54 ft 40 kts 70°
2026-05-07 10:42 53.74791 -2.86920 56 ft 39 kts 72°
2026-05-07 10:42 53.74849 -2.86676 62 ft 6 kts 162°
2026-05-07 10:43 53.74819 -2.86784 57 ft 52 kts 251°
2026-05-07 10:43 53.74435 -2.88701 432 ft 257 kts 250°
2026-05-07 10:43 53.74934 -2.92197 2206 ft 413 kts 325°
2026-05-07 10:43 53.78063 -2.92022 1994 ft 514 kts 18°
2026-05-07 10:44 53.81586 -2.90053 1889 ft 548 kts 19°
2026-05-07 10:44 53.85235 -2.87967 1621 ft 546 kts 19°
2026-05-07 10:44 53.88557 -2.86069 1271 ft 462 kts 19°
2026-05-07 10:44 53.91568 -2.84367 1177 ft 463 kts 18°
2026-05-07 10:45 53.94839 -2.83567 1423 ft 487 kts 359°
2026-05-07 10:45 53.98176 -2.83697 1493 ft 490 kts 357°
2026-05-07 10:45 54.01630 -2.84125 1681 ft 501 kts 354°
2026-05-07 10:45 54.05071 -2.84664 2717 ft 493 kts 354°
2026-05-07 10:46 54.08511 -2.85213 2795 ft 507 kts 354°
2026-05-07 10:46 54.12104 -2.85798 1870 ft 527 kts 354°
2026-05-07 10:46 54.15762 -2.86429 1672 ft 524 kts 353°
2026-05-07 10:46 54.19316 -2.87641 2075 ft 535 kts 338°
2026-05-07 10:47 54.22692 -2.90864 1745 ft 574 kts 326°
2026-05-07 10:47 54.26029 -2.94823 1420 ft 587 kts 326°
2026-05-07 10:47 54.29883 -2.95490 1493 ft 581 kts 12°
2026-05-07 10:47 54.33857 -2.94021 1198 ft 577 kts 12°
2026-05-07 10:48 54.37788 -2.93233 633 ft 581 kts 347°
2026-05-07 10:48 54.41307 -2.96426 846 ft 569 kts 333°
2026-05-07 10:48 54.44524 -2.99129 1368 ft 505 kts 306°
2026-05-07 10:48 54.46798 -3.02558 1167 ft 392 kts 340°
2026-05-07 10:49 54.49182 -3.03676 1207 ft 354 kts 345°
2026-05-07 10:49 54.51964 -3.05048 832 ft 464 kts 343°
2026-05-07 10:49 54.55105 -3.07009 1028 ft 484 kts 355°
2026-05-07 10:49 54.58111 -3.08365 1009 ft 459 kts 323°
2026-05-07 10:50 54.60287 -3.12494 1252 ft 482 kts 299°
2026-05-07 10:50 54.61929 -3.17698 924 ft 504 kts 300°
2026-05-07 10:50 54.64694 -3.21057 778 ft 506 kts 338°
2026-05-07 10:50 54.67736 -3.23401 2920 ft 422 kts 321°
2026-05-07 10:51 54.68560 -3.28125 4107 ft 448 kts 271°
2026-05-07 10:51 54.68671 -3.33733 3984 ft 483 kts 269°
2026-05-07 10:51 54.68707 -3.39937 3925 ft 545 kts 269°
2026-05-07 10:51 54.68739 -3.46692 3903 ft 570 kts 269°
2026-05-07 10:52 54.68768 -3.53550 3828 ft 571 kts 269°
2026-05-07 10:52 54.68799 -3.60007 3268 ft 491 kts 269°
2026-05-07 10:52 54.68836 -3.65905 3201 ft 523 kts 269°
2026-05-07 10:52 54.68863 -3.72561 3518 ft 577 kts 269°
2026-05-07 10:53 54.68880 -3.79468 5463 ft 524 kts 268°
2026-05-07 10:53 54.68117 -3.85503 10885 ft 572 kts 242°
2026-05-07 10:53 54.66646 -3.92031 11492 ft 588 kts 248°
2026-05-07 10:53 54.65450 -3.97057 18442 ft 414 kts 237°
2026-05-07 10:54 54.63576 -4.01940 18037 ft 477 kts 238°
2026-05-07 10:54 54.61418 -4.05771 11364 ft 469 kts 196°
2026-05-07 10:54 54.59153 -4.02123 9082 ft 498 kts 153°
2026-05-07 10:54 54.55390 -4.02315 4347 ft 568 kts 189°
2026-05-07 10:55 54.54112 -4.02694 15664 ft 8 kts 199°
2026-05-07 10:55 54.54974 -4.01903 23415 ft 322 kts 16°
2026-05-07 10:55 54.57501 -4.01632 22319 ft 432 kts 331°
2026-05-07 10:55 54.59385 -4.06067 19924 ft 543 kts 278°
2026-05-07 10:56 54.59409 -4.07933 10968 ft 478 kts 121°
2026-05-07 10:56 54.58396 -4.01919 7375 ft 469 kts 34°
2026-05-07 10:56 54.59627 -4.05234 5471 ft 495 kts 260°
2026-05-07 10:56 54.58934 -4.11841 3952 ft 603 kts 258°
2026-05-07 10:57 54.58122 -4.18978 2742 ft 598 kts 257°
2026-05-07 10:57 54.57317 -4.25947 1402 ft 591 kts 257°
2026-05-07 10:57 54.55088 -4.31018 3616 ft 544 kts 215°
2026-05-07 10:57 54.51527 -4.33517 3901 ft 580 kts 192°
2026-05-07 10:58 54.47433 -4.34943 3647 ft 609 kts 192°
2026-05-07 10:58 54.43541 -4.37162 4108 ft 552 kts 229°
2026-05-07 10:58 54.42031 -4.43066 8648 ft 518 kts 249°
2026-05-07 10:58 54.40929 -4.48833 15367 ft 496 kts 261°
2026-05-07 10:59 54.42361 -4.54611 19229 ft 586 kts 316°
2026-05-07 10:59 54.45957 -4.58132 19861 ft 600 kts 332°
2026-05-07 10:59 54.49682 -4.61319 20557 ft 579 kts 333°
2026-05-07 10:59 54.52990 -4.63401 20663 ft 447 kts 345°
2026-05-07 11:00 54.55816 -4.63977 20345 ft 378 kts
2026-05-07 11:00 54.58249 -4.63326 19695 ft 335 kts 17°
2026-05-07 11:00 54.60448 -4.61395 19264 ft 412 kts 34°
2026-05-07 11:00 54.62641 -4.57302 19383 ft 522 kts 64°
2026-05-07 11:01 54.63575 -4.50764 19688 ft 592 kts 92°
2026-05-07 11:01 54.63211 -4.43752 19758 ft 581 kts 98°
2026-05-07 11:01 54.62544 -4.37054 18850 ft 565 kts 109°
2026-05-07 11:01 54.60742 -4.30886 16561 ft 592 kts 127°
2026-05-07 11:02 54.58226 -4.25748 13549 ft 509 kts 135°
2026-05-07 11:02 54.55959 -4.21839 11052 ft 421 kts 140°
2026-05-07 11:02 54.53929 -4.18809 11066 ft 381 kts 144°
2026-05-07 11:02 54.51768 -4.15718 11481 ft 425 kts 143°
2026-05-07 11:03 54.49391 -4.12346 11828 ft 458 kts 143°
2026-05-07 11:03 54.46853 -4.08773 12001 ft 482 kts 143°
2026-05-07 11:03 54.44221 -4.05078 12318 ft 494 kts 143°
2026-05-07 11:03 54.42053 -4.01005 13942 ft 422 kts 96°
2026-05-07 11:04 54.41864 -3.96718 19382 ft 332 kts 95°
2026-05-07 11:04 54.41850 -3.92725 19832 ft 349 kts 92°
2026-05-07 11:04 54.41841 -3.88312 19274 ft 388 kts 92°
2026-05-07 11:04 54.41013 -3.84530 15518 ft 361 kts 141°
2026-05-07 11:05 54.38727 -3.81222 8093 ft 520 kts 143°
2026-05-07 11:05 54.36790 -3.78534 5866 ft 537 kts 142°
2026-05-07 11:05 54.33025 -3.73287 4443 ft 533 kts 142°
2026-05-07 11:05 54.30015 -3.73580 5447 ft 527 kts 250°
2026-05-07 11:06 54.32128 -3.76911 4766 ft 499 kts
2026-05-07 11:06 54.34685 -3.73418 4431 ft 481 kts 70°
2026-05-07 11:06 54.34882 -3.67821 2839 ft 489 kts 115°
2026-05-07 11:06 54.32485 -3.62929 2211 ft 586 kts 152°
2026-05-07 11:07 54.28694 -3.60487 5081 ft 575 kts 163°
2026-05-07 11:07 54.24938 -3.58413 9224 ft 547 kts 163°
2026-05-07 11:07 54.22548 -3.57074 12000 ft 534 kts 163°
2026-05-07 11:07 54.18893 -3.55038 13187 ft 564 kts 163°
2026-05-07 11:08 54.15190 -3.52982 13736 ft 567 kts 163°
2026-05-07 11:08 54.11397 -3.50882 14311 ft 566 kts 163°
2026-05-07 11:08 54.07674 -3.48823 14090 ft 559 kts 163°
2026-05-07 11:08 54.03975 -3.46778 13795 ft 559 kts 163°
2026-05-07 11:09 54.00283 -3.44739 13588 ft 558 kts 163°
2026-05-07 11:09 53.96592 -3.42700 13548 ft 557 kts 163°
2026-05-07 11:09 53.92902 -3.40664 13450 ft 558 kts 163°
2026-05-07 11:09 53.89248 -3.38649 13064 ft 559 kts 163°
2026-05-07 11:10 53.85710 -3.36524 12368 ft 503 kts 160°
2026-05-07 11:10 53.82624 -3.34360 11824 ft 462 kts 158°
2026-05-07 11:10 53.79828 -3.32115 11214 ft 442 kts 155°
2026-05-07 11:10 53.77158 -3.29683 10704 ft 430 kts 152°
2026-05-07 11:11 53.74613 -3.27083 10225 ft 425 kts 149°
2026-05-07 11:11 53.72141 -3.24274 9711 ft 422 kts 147°
2026-05-07 11:11 53.69825 -3.21370 9180 ft 420 kts 144°
2026-05-07 11:11 53.68855 -3.17418 7010 ft 346 kts 80°
2026-05-07 11:12 53.69727 -3.13196 3008 ft 446 kts 75°
2026-05-07 11:12 53.70599 -3.07527 1471 ft 536 kts 76°
2026-05-07 11:12 53.71781 -3.01957 1225 ft 460 kts 69°
2026-05-07 11:12 53.72955 -2.97281 1116 ft 402 kts 71°
2026-05-07 11:13 53.73811 -2.93042 1034 ft 376 kts 73°
2026-05-07 11:13 53.74627 -2.88937 932 ft 362 kts 72°
2026-05-07 11:13 53.73794 -2.86323 1746 ft 259 kts 191°
2026-05-07 11:13 53.73262 -2.88399 1254 ft 182 kts 247°
2026-05-07 11:14 53.72823 -2.90527 732 ft 175 kts 250°
2026-05-07 11:14 53.73297 -2.92291 692 ft 186 kts 20°
2026-05-07 11:14 53.74004 -2.90815 156 ft 166 kts 75°
2026-05-07 11:14 53.74322 -2.89234 42 ft 120 kts 73°
2026-05-07 11:15 53.74519 -2.88261 50 ft 45 kts 70°
2026-05-07 11:15 53.74615 -2.87797 54 ft 40 kts 72°
2026-05-07 11:15 53.74584 -2.87666 50 ft 30 kts 206°
2026-05-07 11:15 53.74476 -2.87924 51 ft 38 kts 229°
2026-05-07 11:16 53.74349 -2.88321 50 ft 29 kts 245°
2026-05-07 11:16 53.74229 -2.88275 44 ft 12 kts 120°
2026-05-07 11:16 53.74156 -2.88224 41 ft 17 kts 161°
2026-05-07 11:16 53.74105 -2.88096 41 ft 15 kts 104°
2026-05-07 11:17 53.74073 -2.87918 38 ft 14 kts 107°
2026-05-07 11:17 53.74073 -2.87854 37 ft 0 kts 51°
2026-05-07 11:17 53.74075 -2.87852 37 ft 0 kts 51°